Time;durP1;ratioP1;P1;durP2;ratioP2;P2;SDS_P1;SDS_P2;PMS_P1;PMS_P2;Temp;Humidity;BMP_temperature;BMP_pressure;BME280_temperature;BME280_humidity;BME280_pressure;Samples;Min_cycle;Max_cycle;Signal;HPM_P1;HPM_P2
2023/03/23 00:09:34;;;;;;;3.92;1.17;;;12.20;30.10;;;;;;25784426;22;20016;-41
2023/03/23 00:19:45;;;;;;;2.92;1.45;;;12.20;28.80;;;;;;25785159;23;20020;-41
2023/03/23 00:29:46;;;;;;;3.15;1.05;;;12.20;26.70;;;;;;25783466;23;20016;-42
2023/03/23 00:39:48;;;;;;;3.45;1.67;;;12.30;24.50;;;;;;25787483;22;20012;-42
2023/03/23 00:49:52;;;;;;;3.15;1.25;;;12.20;25.20;;;;;;25786927;22;20008;-42
2023/03/23 00:59:53;;;;;;;2.10;1.10;;;12.20;24.60;;;;;;25788104;23;20016;-41
2023/03/23 01:09:54;;;;;;;1.98;0.95;;;12.30;21.70;;;;;;25789850;23;20016;-41
2023/03/23 01:19:56;;;;;;;2.88;0.98;;;12.20;20.00;;;;;;25789713;22;20436;-42
2023/03/23 01:29:57;;;;;;;3.13;0.98;;;12.20;20.30;;;;;;25781912;22;20022;-41
2023/03/23 01:39:58;;;;;;;2.53;1.15;;;12.20;18.80;;;;;;25787410;22;20008;-41
2023/03/23 01:49:59;;;;;;;1.25;0.70;;;12.20;16.90;;;;;;25795141;22;20023;-41
2023/03/23 02:00:14;;;;;;;1.38;0.60;;;12.20;15.50;;;;;;25786073;23;20059;-41
2023/03/23 02:10:15;;;;;;;1.75;0.75;;;12.20;15.00;;;;;;25783727;23;20016;-41
2023/03/23 02:20:31;;;;;;;3.50;1.65;;;12.30;14.40;;;;;;25781409;22;20087;-41
2023/03/23 02:30:54;;;;;;;1.80;0.60;;;12.30;15.10;;;;;;25781924;23;20020;-42
2023/03/23 02:40:59;;;;;;;1.58;0.55;;;12.20;15.30;;;;;;25786768;22;20487;-42
2023/03/23 02:51:01;;;;;;;1.30;0.65;;;12.40;13.40;;;;;;25782814;23;20016;-42
2023/03/23 03:01:33;;;;;;;9.52;1.67;;;12.50;11.60;;;;;;25787632;23;20008;-42
2023/03/23 03:11:36;;;;;;;3.17;0.73;;;12.50;10.10;;;;;;25778866;23;20642;-42
2023/03/23 03:21:41;;;;;;;2.55;0.70;;;12.50;10.30;;;;;;25775976;22;20572;-42
2023/03/23 03:31:45;;;;;;;2.05;0.75;;;12.50;9.10;;;;;;25785440;22;20016;-42
2023/03/23 03:41:47;;;;;;;3.28;1.10;;;12.50;9.50;;;;;;25784060;22;20382;-42
2023/03/23 03:51:48;;;;;;;2.63;0.60;;;12.60;8.50;;;;;;25787113;22;20019;-42
2023/03/23 04:01:53;;;;;;;2.30;0.40;;;12.30;21.10;;;;;;25792316;22;20058;-42
2023/03/23 04:11:54;;;;;;;2.17;1.23;;;12.20;25.00;;;;;;25790698;22;20018;-41
2023/03/23 04:21:58;;;;;;;1.75;0.60;;;11.90;29.00;;;;;;25781891;22;20047;-41
2023/03/23 04:32:01;;;;;;;1.38;0.82;;;11.90;29.80;;;;;;25792170;23;20020;-41
2023/03/23 04:42:03;;;;;;;2.28;1.02;;;12.10;23.20;;;;;;25782579;22;20018;-42
2023/03/23 04:52:05;;;;;;;4.88;1.27;;;12.00;18.80;;;;;;25792060;23;20019;-41
2023/03/23 05:02:06;;;;;;;3.78;0.90;;;12.00;14.60;;;;;;25784417;23;20350;-41
2023/03/23 05:12:09;;;;;;;5.00;1.38;;;11.70;32.60;;;;;;25776208;23;20016;-41
2023/03/23 05:22:12;;;;;;;7.72;1.42;;;11.40;44.90;;;;;;25780696;23;20474;-41
2023/03/23 05:32:13;;;;;;;2.88;1.60;;;11.30;55.00;;;;;;25787203;23;20026;-41
2023/03/23 05:42:14;;;;;;;1.98;0.98;;;11.10;82.10;;;;;;25787973;22;20022;-40
2023/03/23 05:52:15;;;;;;;4.20;1.23;;;10.90;99.90;;;;;;25777722;23;20027;-41
2023/03/23 06:02:16;;;;;;;3.03;1.02;;;10.90;99.90;;;;;;25782757;23;20026;-41
2023/03/23 06:12:20;;;;;;;3.20;1.10;;;10.90;99.90;;;;;;25776931;23;20020;-40
2023/03/23 06:22:20;;;;;;;3.13;0.80;;;10.90;99.90;;;;;;25767251;23;20075;-40
2023/03/23 06:32:23;;;;;;;3.33;1.25;;;11.00;99.90;;;;;;25784770;23;20122;-40
2023/03/23 06:42:24;;;;;;;4.57;1.20;;;11.00;99.90;;;;;;25780963;22;20038;-41
2023/03/23 06:52:26;;;;;;;3.15;1.20;;;11.00;99.90;;;;;;25781715;23;20020;-41
2023/03/23 07:02:27;;;;;;;2.22;0.95;;;11.00;99.90;;;;;;25788471;22;20024;-41
2023/03/23 07:12:28;;;;;;;5.82;1.95;;;11.10;99.90;;;;;;25789330;22;20477;-41
2023/03/23 07:22:29;;;;;;;1.75;0.70;;;11.20;92.30;;;;;;25786516;22;20401;-41
2023/03/23 07:32:31;;;;;;;6.47;1.77;;;11.40;75.40;;;;;;25779146;22;20019;-41
2023/03/23 07:42:32;;;;;;;6.97;0.82;;;11.40;52.10;;;;;;25793583;22;20353;-41
2023/03/23 07:52:36;;;;;;;2.45;1.00;;;11.40;47.30;;;;;;25786303;22;20024;-41
2023/03/23 08:02:37;;;;;;;2.33;1.25;;;11.50;43.20;;;;;;25774930;23;20046;-41
2023/03/23 08:12:39;;;;;;;3.83;1.75;;;11.60;52.20;;;;;;25787941;23;20103;-41
2023/03/23 08:22:42;;;;;;;13.57;1.60;;;11.70;42.30;;;;;;25780343;22;20481;-41
2023/03/23 08:32:44;;;;;;;6.55;1.85;;;11.70;38.60;;;;;;25785587;22;20030;-41
2023/03/23 08:42:46;;;;;;;2.33;1.13;;;11.90;45.80;;;;;;25780378;22;21189;-41
2023/03/23 08:52:48;;;;;;;2.83;1.45;;;12.20;42.00;;;;;;25780551;23;20353;-41
2023/03/23 09:02:52;;;;;;;3.63;1.80;;;12.70;23.60;;;;;;25779120;23;20008;-41
2023/03/23 09:12:54;;;;;;;5.68;1.77;;;12.90;12.00;;;;;;25785992;23;20353;-41
2023/03/23 09:22:57;;;;;;;3.03;1.33;;;13.20;5.60;;;;;;25778570;22;20095;-41
2023/03/23 09:33:01;;;;;;;3.47;1.52;;;13.40;1.50;;;;;;25771406;22;20104;-41
2023/03/23 09:43:34;;;;;;;3.00;1.05;;;13.60;1.00;;;;;;25776344;22;20472;-41
2023/03/23 09:53:43;;;;;;;2.88;1.00;;;13.60;1.00;;;;;;25739574;22;20500;-41
2023/03/23 10:03:46;;;;;;;4.10;1.08;;;13.50;1.00;;;;;;25780491;23;20086;-42
2023/03/23 10:14:33;;;;;;;5.97;1.02;;;13.50;1.00;;;;;;25780827;22;21303;-41
2023/03/23 10:24:39;;;;;;;2.78;1.50;;;13.60;1.00;;;;;;25541913;22;20028;-42
2023/03/23 10:34:47;;;;;;;2.75;1.10;;;14.00;1.00;;;;;;25766091;22;20175;-42
2023/03/23 10:44:48;;;;;;;20.13;2.53;;;13.90;1.00;;;;;;25778425;22;20018;-42
2023/03/23 10:55:06;;;;;;;4.82;1.52;;;14.50;1.00;;;;;;25788080;23;20015;-41
2023/03/23 11:05:18;;;;;;;6.47;2.35;;;14.30;1.00;;;;;;25788362;23;20078;-41
2023/03/23 11:15:45;;;;;;;2.80;0.93;;;14.40;1.00;;;;;;25782178;22;20387;-41
2023/03/23 11:25:52;;;;;;;2.33;1.17;;;14.20;1.00;;;;;;25787588;23;20047;-41
2023/03/23 11:35:54;;;;;;;3.53;1.25;;;14.40;1.00;;;;;;25781636;22;20012;-40
2023/03/23 11:46:03;;;;;;;4.30;1.20;;;15.40;1.00;;;;;;25798515;22;20008;-40
2023/03/23 11:56:17;;;;;;;4.82;1.73;;;15.10;1.00;;;;;;25788926;22;20435;-40
2023/03/23 12:06:41;;;;;;;2.42;0.85;;;15.00;1.00;;;;;;25776434;22;20016;-40
2023/03/23 12:17:29;;;;;;;2.03;0.60;;;15.60;1.00;;;;;;25773115;23;20338;-40
2023/03/23 12:28:06;;;;;;;3.03;0.73;;;16.80;1.00;;;;;;25740078;22;20016;-41
2023/03/23 12:38:22;;;;;;;1.60;0.57;;;16.20;1.00;;;;;;25778579;22;20066;-41
2023/03/23 12:48:33;;;;;;;7.75;1.70;;;15.30;1.00;;;;;;25785227;23;20487;-41
2023/03/23 12:58:42;;;;;;;6.13;1.42;;;15.10;1.00;;;;;;25789880;23;20012;-41
2023/03/23 13:09:22;;;;;;;1.73;0.68;;;15.00;1.00;;;;;;25786538;23;20048;-41
2023/03/23 13:19:30;;;;;;;2.88;0.82;;;14.90;1.00;;;;;;25782858;23;20031;-40
2023/03/23 13:29:33;;;;;;;1.50;0.52;;;15.50;1.00;;;;;;25787133;22;20026;-41
2023/03/23 13:40:16;;;;;;;3.47;1.45;;;15.60;1.00;;;;;;25788867;22;20092;-41
2023/03/23 13:50:19;;;;;;;1.75;0.93;;;16.40;1.00;;;;;;25758014;23;20023;-41
2023/03/23 14:00:33;;;;;;;3.60;0.70;;;16.70;1.00;;;;;;25786581;23;20012;-40
2023/03/23 14:10:41;;;;;;;2.15;0.70;;;15.80;1.00;;;;;;25787870;22;20404;-41
2023/03/23 14:20:45;;;;;;;10.63;1.63;;;17.10;1.00;;;;;;25783023;22;20501;-41
2023/03/23 14:30:48;;;;;;;6.05;1.73;;;17.30;1.00;;;;;;25779231;23;21595;-41
2023/03/23 14:40:49;;;;;;;4.88;2.00;;;17.40;1.00;;;;;;25791678;22;20111;-42
2023/03/23 14:50:55;;;;;;;9.88;2.05;;;17.10;1.00;;;;;;25787049;23;20018;-42
2023/03/23 15:01:06;;;;;;;5.15;1.40;;;17.20;1.00;;;;;;25788878;23;20083;-42
2023/03/23 15:11:20;;;;;;;0.90;0.30;;;16.70;1.00;;;;;;25788630;23;20019;-42
2023/03/23 15:21:31;;;;;;;3.60;1.08;;;16.50;1.00;;;;;;25786592;23;20613;-42
2023/03/23 15:31:32;;;;;;;2.35;0.73;;;16.30;1.00;;;;;;25791400;23;20378;-42
2023/03/23 15:41:33;;;;;;;1.40;0.50;;;15.70;1.00;;;;;;25803470;22;20004;-42
2023/03/23 15:51:34;;;;;;;11.73;2.05;;;15.80;1.00;;;;;;25794447;23;20345;-42
2023/03/23 16:01:38;;;;;;;8.10;1.60;;;15.70;1.00;;;;;;25793623;23;20091;-42
2023/03/23 16:11:39;;;;;;;5.80;1.75;;;15.50;1.00;;;;;;25789342;22;20335;-42
2023/03/23 16:21:41;;;;;;;8.57;2.03;;;15.60;1.00;;;;;;25791166;23;20609;-42
2023/03/23 16:31:43;;;;;;;5.43;1.45;;;15.40;1.00;;;;;;25790483;23;20018;-42
2023/03/23 16:41:44;;;;;;;4.25;1.60;;;15.20;1.00;;;;;;25782123;22;20016;-42
2023/03/23 16:51:47;;;;;;;3.03;1.10;;;15.00;1.00;;;;;;25788095;23;20016;-42
2023/03/23 17:01:47;;;;;;;6.63;2.97;;;15.00;1.00;;;;;;25789092;22;20505;-42
2023/03/23 17:11:50;;;;;;;4.60;1.00;;;14.90;1.00;;;;;;25800776;23;20020;-42
2023/03/23 17:21:51;;;;;;;4.20;1.20;;;14.90;1.00;;;;;;25785488;22;20020;-42
2023/03/23 17:31:52;;;;;;;4.63;1.50;;;14.90;1.00;;;;;;25789593;23;20027;-42
2023/03/23 17:41:54;;;;;;;2.92;1.33;;;14.70;1.00;;;;;;25798057;22;20167;-41
2023/03/23 17:51:56;;;;;;;9.57;1.33;;;14.70;1.00;;;;;;25787785;22;20012;-42
2023/03/23 18:01:57;;;;;;;3.92;1.25;;;14.60;1.00;;;;;;25780557;22;20016;-42
2023/03/23 18:11:58;;;;;;;1.77;0.70;;;14.50;1.00;;;;;;25778397;22;20039;-41
2023/03/23 18:22:00;;;;;;;6.38;1.30;;;14.40;1.00;;;;;;25778074;23;20046;-41
2023/03/23 18:32:00;;;;;;;3.65;1.73;;;14.30;1.00;;;;;;25768808;23;20023;-42
2023/03/23 18:42:01;;;;;;;3.90;1.25;;;14.20;1.00;;;;;;25787636;22;20018;-41
2023/03/23 18:52:03;;;;;;;2.05;0.60;;;14.00;1.00;;;;;;25774210;23;20511;-41
2023/03/23 19:02:04;;;;;;;6.88;1.70;;;13.70;1.00;;;;;;25788212;22;20012;-41
2023/03/23 19:12:07;;;;;;;3.53;1.10;;;13.20;11.50;;;;;;25784715;22;20647;-40
2023/03/23 19:22:08;;;;;;;3.63;1.33;;;12.70;27.70;;;;;;25790832;22;20030;-41
2023/03/23 19:32:09;;;;;;;3.97;1.35;;;12.70;47.50;;;;;;25783195;22;20016;-40
2023/03/23 19:42:10;;;;;;;4.32;1.73;;;12.60;51.60;;;;;;25791385;22;20008;-40
2023/03/23 19:52:12;;;;;;;3.83;0.98;;;12.50;60.50;;;;;;25786500;22;20008;-40
2023/03/23 20:02:13;;;;;;;7.00;1.83;;;12.40;72.10;;;;;;25786088;22;20012;-40
2023/03/23 20:12:14;;;;;;;3.67;1.17;;;12.30;90.80;;;;;;25781658;22;20467;-39
2023/03/23 20:22:15;;;;;;;11.45;2.25;;;12.30;94.30;;;;;;25783748;22;20030;-39
2023/03/23 20:32:16;;;;;;;15.63;3.22;;;12.20;99.90;;;;;;25781790;22;20012;-39
2023/03/23 20:42:18;;;;;;;4.32;2.17;;;12.10;99.90;;;;;;25791851;22;20032;-40
2023/03/23 20:52:19;;;;;;;2.90;1.67;;;12.10;99.90;;;;;;25789628;23;20016;-40
2023/03/23 21:02:21;;;;;;;9.43;2.35;;;12.00;99.90;;;;;;25797210;23;20074;-40
2023/03/23 21:12:22;;;;;;;5.45;1.58;;;12.10;99.90;;;;;;25787750;23;20019;-39
2023/03/23 21:22:23;;;;;;;7.03;1.88;;;12.00;99.90;;;;;;25788076;22;20496;-40
2023/03/23 21:32:25;;;;;;;4.15;2.22;;;11.90;99.90;;;;;;25793395;22;20023;-40
2023/03/23 21:42:29;;;;;;;7.95;2.53;;;11.90;99.90;;;;;;25791306;22;20016;-40
2023/03/23 21:52:31;;;;;;;3.80;1.40;;;11.90;99.90;;;;;;25789686;23;20087;-40
2023/03/23 22:02:32;;;;;;;5.10;2.65;;;12.00;99.90;;;;;;25785695;23;20015;-40
2023/03/23 22:12:35;;;;;;;4.78;1.67;;;12.00;99.90;;;;;;25796059;23;20091;-40
2023/03/23 22:22:36;;;;;;;4.55;1.20;;;12.00;99.90;;;;;;25782822;22;20311;-40
2023/03/23 22:32:37;;;;;;;3.30;1.70;;;12.00;99.90;;;;;;25779383;23;20357;-40
2023/03/23 22:42:39;;;;;;;3.05;1.52;;;11.80;99.90;;;;;;25793146;22;20376;-40
2023/03/23 22:52:40;;;;;;;4.07;2.33;;;11.80;99.90;;;;;;25788166;22;20473;-40
2023/03/23 23:02:42;;;;;;;4.13;1.35;;;11.80;99.90;;;;;;25797181;23;20004;-40
2023/03/23 23:12:44;;;;;;;2.40;1.05;;;11.70;99.90;;;;;;25791755;22;20016;-40
2023/03/23 23:22:45;;;;;;;2.15;1.20;;;11.70;99.90;;;;;;25780971;22;20445;-40
2023/03/23 23:32:46;;;;;;;2.50;1.17;;;11.70;99.90;;;;;;25794846;22;20066;-40
2023/03/23 23:42:50;;;;;;;5.15;1.77;;;11.80;99.90;;;;;;25798231;22;20012;-40
2023/03/23 23:52:52;;;;;;;2.78;1.30;;;11.80;99.90;;;;;;25786516;22;20035;-40
